sensor_id;sensor_type;location;lat;lon;timestamp;temperature;humidity
14585;DHT22;7379;51.506;11.876;2022-09-17T00:01:25;14.90;57.40
14585;DHT22;7379;51.506;11.876;2022-09-17T00:03:55;14.90;57.50
14585;DHT22;7379;51.506;11.876;2022-09-17T00:06:25;14.90;57.50
14585;DHT22;7379;51.506;11.876;2022-09-17T00:08:52;14.90;57.60
14585;DHT22;7379;51.506;11.876;2022-09-17T00:11:22;14.90;58.30
14585;DHT22;7379;51.506;11.876;2022-09-17T00:13:50;14.90;57.70
14585;DHT22;7379;51.506;11.876;2022-09-17T00:16:25;14.90;57.70
14585;DHT22;7379;51.506;11.876;2022-09-17T00:18:54;14.90;57.80
14585;DHT22;7379;51.506;11.876;2022-09-17T00:21:22;14.90;57.90
14585;DHT22;7379;51.506;11.876;2022-09-17T00:23:52;14.90;57.90
14585;DHT22;7379;51.506;11.876;2022-09-17T00:26:20;14.90;58.00
14585;DHT22;7379;51.506;11.876;2022-09-17T00:28:48;14.90;58.00
14585;DHT22;7379;51.506;11.876;2022-09-17T00:31:15;14.90;58.10
14585;DHT22;7379;51.506;11.876;2022-09-17T00:33:42;14.90;58.10
14585;DHT22;7379;51.506;11.876;2022-09-17T00:36:10;14.80;58.10
14585;DHT22;7379;51.506;11.876;2022-09-17T00:38:37;14.90;58.20
14585;DHT22;7379;51.506;11.876;2022-09-17T00:41:05;14.80;58.10
14585;DHT22;7379;51.506;11.876;2022-09-17T00:43:35;14.80;58.20
14585;DHT22;7379;51.506;11.876;2022-09-17T00:46:03;14.80;58.20
14585;DHT22;7379;51.506;11.876;2022-09-17T00:48:30;14.80;58.30
14585;DHT22;7379;51.506;11.876;2022-09-17T00:50:59;14.80;58.30
14585;DHT22;7379;51.506;11.876;2022-09-17T00:53:28;14.80;58.30
14585;DHT22;7379;51.506;11.876;2022-09-17T00:56:00;14.80;58.40
14585;DHT22;7379;51.506;11.876;2022-09-17T00:58:28;14.80;58.40
14585;DHT22;7379;51.506;11.876;2022-09-17T01:00:56;14.80;58.50
14585;DHT22;7379;51.506;11.876;2022-09-17T01:03:24;14.80;58.60
14585;DHT22;7379;51.506;11.876;2022-09-17T01:05:58;14.80;58.60
14585;DHT22;7379;51.506;11.876;2022-09-17T01:08:33;14.80;58.60
14585;DHT22;7379;51.506;11.876;2022-09-17T01:11:18;14.80;58.70
14585;DHT22;7379;51.506;11.876;2022-09-17T01:13:59;14.70;58.70
14585;DHT22;7379;51.506;11.876;2022-09-17T01:16:33;14.80;58.80
14585;DHT22;7379;51.506;11.876;2022-09-17T01:19:31;14.80;58.80
14585;DHT22;7379;51.506;11.876;2022-09-17T01:22:07;14.70;58.80
14585;DHT22;7379;51.506;11.876;2022-09-17T01:24:45;14.70;58.80
14585;DHT22;7379;51.506;11.876;2022-09-17T01:30:51;14.70;58.90
14585;DHT22;7379;51.506;11.876;2022-09-17T01:33:26;14.70;59.00
14585;DHT22;7379;51.506;11.876;2022-09-17T01:36:01;14.70;59.10
14585;DHT22;7379;51.506;11.876;2022-09-17T01:38:33;14.70;59.10
14585;DHT22;7379;51.506;11.876;2022-09-17T01:41:07;14.70;59.20
14585;DHT22;7379;51.506;11.876;2022-09-17T01:43:41;14.70;59.20
14585;DHT22;7379;51.506;11.876;2022-09-17T01:46:19;14.70;59.30
14585;DHT22;7379;51.506;11.876;2022-09-17T01:48:49;14.70;59.40
14585;DHT22;7379;51.506;11.876;2022-09-17T01:51:20;14.60;59.30
14585;DHT22;7379;51.506;11.876;2022-09-17T01:53:52;14.60;59.40
14585;DHT22;7379;51.506;11.876;2022-09-17T01:56:29;14.60;59.40
14585;DHT22;7379;51.506;11.876;2022-09-17T01:59:02;14.60;59.50
14585;DHT22;7379;51.506;11.876;2022-09-17T02:01:32;14.60;59.50
14585;DHT22;7379;51.506;11.876;2022-09-17T02:04:02;14.60;59.50
14585;DHT22;7379;51.506;11.876;2022-09-17T02:06:35;14.60;59.60
14585;DHT22;7379;51.506;11.876;2022-09-17T02:09:06;14.60;59.60
14585;DHT22;7379;51.506;11.876;2022-09-17T02:11:38;14.60;59.60
14585;DHT22;7379;51.506;11.876;2022-09-17T02:14:08;14.60;59.70
14585;DHT22;7379;51.506;11.876;2022-09-17T02:16:42;14.60;59.70
14585;DHT22;7379;51.506;11.876;2022-09-17T02:19:14;14.60;59.80
14585;DHT22;7379;51.506;11.876;2022-09-17T02:21:45;14.60;59.80
14585;DHT22;7379;51.506;11.876;2022-09-17T02:24:18;14.60;59.80
14585;DHT22;7379;51.506;11.876;2022-09-17T02:26:53;14.60;59.80
14585;DHT22;7379;51.506;11.876;2022-09-17T02:29:25;14.60;59.90
14585;DHT22;7379;51.506;11.876;2022-09-17T02:31:56;14.50;59.80
14585;DHT22;7379;51.506;11.876;2022-09-17T02:34:24;14.60;60.00
14585;DHT22;7379;51.506;11.876;2022-09-17T02:36:53;14.50;59.90
14585;DHT22;7379;51.506;11.876;2022-09-17T02:39:20;14.50;59.90
14585;DHT22;7379;51.506;11.876;2022-09-17T02:41:52;14.50;60.00
14585;DHT22;7379;51.506;11.876;2022-09-17T02:44:29;14.50;60.10
14585;DHT22;7379;51.506;11.876;2022-09-17T02:47:22;14.50;60.10
14585;DHT22;7379;51.506;11.876;2022-09-17T02:50:01;14.50;60.20
14585;DHT22;7379;51.506;11.876;2022-09-17T02:52:41;14.50;60.20
14585;DHT22;7379;51.506;11.876;2022-09-17T02:55:16;14.50;60.30
14585;DHT22;7379;51.506;11.876;2022-09-17T02:57:46;14.40;60.30
14585;DHT22;7379;51.506;11.876;2022-09-17T03:00:19;14.50;60.40
14585;DHT22;7379;51.506;11.876;2022-09-17T03:02:50;14.40;60.30
14585;DHT22;7379;51.506;11.876;2022-09-17T03:05:20;14.40;60.40
14585;DHT22;7379;51.506;11.876;2022-09-17T03:07:48;14.40;60.50
14585;DHT22;7379;51.506;11.876;2022-09-17T03:10:15;14.40;60.60
14585;DHT22;7379;51.506;11.876;2022-09-17T03:12:43;14.40;60.60
14585;DHT22;7379;51.506;11.876;2022-09-17T03:15:10;14.40;60.70
14585;DHT22;7379;51.506;11.876;2022-09-17T03:17:37;14.40;60.80
14585;DHT22;7379;51.506;11.876;2022-09-17T03:20:06;14.40;60.90
14585;DHT22;7379;51.506;11.876;2022-09-17T03:22:33;14.40;61.10
14585;DHT22;7379;51.506;11.876;2022-09-17T03:25:08;14.40;61.20
14585;DHT22;7379;51.506;11.876;2022-09-17T03:27:35;14.40;61.40
14585;DHT22;7379;51.506;11.876;2022-09-17T17:01:14;15.90;87.20
14585;DHT22;7379;51.506;11.876;2022-09-17T17:03:41;15.70;87.50
14585;DHT22;7379;51.506;11.876;2022-09-17T17:06:14;15.60;88.20
14585;DHT22;7379;51.506;11.876;2022-09-17T17:08:42;15.50;88.70
14585;DHT22;7379;51.506;11.876;2022-09-17T17:11:09;15.40;89.20
14585;DHT22;7379;51.506;11.876;2022-09-17T17:13:36;15.40;89.90
14585;DHT22;7379;51.506;11.876;2022-09-17T17:16:05;15.40;90.10
14585;DHT22;7379;51.506;11.876;2022-09-17T17:18:31;15.40;90.50
14585;DHT22;7379;51.506;11.876;2022-09-17T17:21:04;15.40;90.50
14585;DHT22;7379;51.506;11.876;2022-09-17T17:23:30;15.30;90.50
14585;DHT22;7379;51.506;11.876;2022-09-17T17:25:58;15.30;90.60
14585;DHT22;7379;51.506;11.876;2022-09-17T17:28:25;15.30;90.70
14585;DHT22;7379;51.506;11.876;2022-09-17T17:30:52;15.30;90.80
14585;DHT22;7379;51.506;11.876;2022-09-17T17:33:19;15.30;91.00
14585;DHT22;7379;51.506;11.876;2022-09-17T17:35:45;15.30;91.00
14585;DHT22;7379;51.506;11.876;2022-09-17T17:38:12;15.30;91.40
14585;DHT22;7379;51.506;11.876;2022-09-17T17:40:39;15.20;91.10
14585;DHT22;7379;51.506;11.876;2022-09-17T17:43:07;15.20;91.20
14585;DHT22;7379;51.506;11.876;2022-09-17T17:45:34;15.20;91.30
14585;DHT22;7379;51.506;11.876;2022-09-17T17:48:01;15.20;91.50
14585;DHT22;7379;51.506;11.876;2022-09-17T17:50:28;15.20;91.50
14585;DHT22;7379;51.506;11.876;2022-09-17T17:52:54;15.10;91.60
14585;DHT22;7379;51.506;11.876;2022-09-17T17:55:21;15.10;91.60
14585;DHT22;7379;51.506;11.876;2022-09-17T17:57:53;15.10;91.70
14585;DHT22;7379;51.506;11.876;2022-09-17T18:00:22;15.10;91.80
14585;DHT22;7379;51.506;11.876;2022-09-17T18:02:49;15.10;91.90
14585;DHT22;7379;51.506;11.876;2022-09-17T18:05:16;15.10;91.90
14585;DHT22;7379;51.506;11.876;2022-09-17T18:07:43;15.00;92.70
14585;DHT22;7379;51.506;11.876;2022-09-17T18:10:09;15.00;92.30
14585;DHT22;7379;51.506;11.876;2022-09-17T18:12:37;15.00;92.30
14585;DHT22;7379;51.506;11.876;2022-09-17T18:15:13;15.00;92.10
14585;DHT22;7379;51.506;11.876;2022-09-17T18:17:41;15.00;92.10
14585;DHT22;7379;51.506;11.876;2022-09-17T18:20:08;15.00;92.10
14585;DHT22;7379;51.506;11.876;2022-09-17T18:22:35;14.90;92.10
14585;DHT22;7379;51.506;11.876;2022-09-17T18:25:02;14.90;92.20
14585;DHT22;7379;51.506;11.876;2022-09-17T18:27:29;14.90;92.20
14585;DHT22;7379;51.506;11.876;2022-09-17T18:29:56;14.90;92.30
14585;DHT22;7379;51.506;11.876;2022-09-17T18:32:23;14.80;92.40
14585;DHT22;7379;51.506;11.876;2022-09-17T18:34:51;14.80;92.40
14585;DHT22;7379;51.506;11.876;2022-09-17T18:37:17;14.80;92.50
14585;DHT22;7379;51.506;11.876;2022-09-17T18:39:44;14.80;92.50
14585;DHT22;7379;51.506;11.876;2022-09-17T18:42:13;14.80;92.50
14585;DHT22;7379;51.506;11.876;2022-09-17T18:44:40;14.80;92.60
14585;DHT22;7379;51.506;11.876;2022-09-17T18:47:06;14.80;92.70
14585;DHT22;7379;51.506;11.876;2022-09-17T18:49:34;14.70;92.70
14585;DHT22;7379;51.506;11.876;2022-09-17T18:52:03;14.70;92.80
14585;DHT22;7379;51.506;11.876;2022-09-17T18:54:29;14.70;92.80
14585;DHT22;7379;51.506;11.876;2022-09-17T18:56:56;14.70;92.90
14585;DHT22;7379;51.506;11.876;2022-09-17T18:59:23;14.60;93.00
14585;DHT22;7379;51.506;11.876;2022-09-17T19:01:50;14.60;93.00
14585;DHT22;7379;51.506;11.876;2022-09-17T19:04:16;14.60;93.00
14585;DHT22;7379;51.506;11.876;2022-09-17T19:06:43;14.60;93.10
14585;DHT22;7379;51.506;11.876;2022-09-17T19:09:12;14.50;93.10
14585;DHT22;7379;51.506;11.876;2022-09-17T19:11:38;14.50;93.00
14585;DHT22;7379;51.506;11.876;2022-09-17T19:14:08;14.50;93.00
14585;DHT22;7379;51.506;11.876;2022-09-17T19:16:35;14.50;93.20
14585;DHT22;7379;51.506;11.876;2022-09-17T19:19:02;14.40;93.20
14585;DHT22;7379;51.506;11.876;2022-09-17T19:21:28;14.40;93.40
14585;DHT22;7379;51.506;11.876;2022-09-17T19:23:55;14.40;93.50
14585;DHT22;7379;51.506;11.876;2022-09-17T19:26:24;14.40;93.60
14585;DHT22;7379;51.506;11.876;2022-09-17T19:28:52;14.40;93.60
14585;DHT22;7379;51.506;11.876;2022-09-17T19:31:19;14.40;93.60
14585;DHT22;7379;51.506;11.876;2022-09-17T19:33:46;14.40;93.70
14585;DHT22;7379;51.506;11.876;2022-09-17T19:36:14;14.30;93.80
14585;DHT22;7379;51.506;11.876;2022-09-17T19:38:42;14.40;94.20
14585;DHT22;7379;51.506;11.876;2022-09-17T19:41:10;14.30;93.90
14585;DHT22;7379;51.506;11.876;2022-09-17T19:43:39;14.30;94.30
14585;DHT22;7379;51.506;11.876;2022-09-17T19:46:09;14.30;94.00
14585;DHT22;7379;51.506;11.876;2022-09-17T19:48:41;14.30;94.00
14585;DHT22;7379;51.506;11.876;2022-09-17T19:51:08;14.30;94.10
14585;DHT22;7379;51.506;11.876;2022-09-17T19:53:35;14.30;94.10
14585;DHT22;7379;51.506;11.876;2022-09-17T19:56:02;14.20;94.40
14585;DHT22;7379;51.506;11.876;2022-09-17T19:58:29;14.20;94.50
14585;DHT22;7379;51.506;11.876;2022-09-17T20:00:57;14.20;94.50
14585;DHT22;7379;51.506;11.876;2022-09-17T20:03:25;14.20;94.60
14585;DHT22;7379;51.506;11.876;2022-09-17T20:05:57;14.20;94.80
14585;DHT22;7379;51.506;11.876;2022-09-17T20:08:24;14.20;94.80
14585;DHT22;7379;51.506;11.876;2022-09-17T20:10:50;14.10;94.90
14585;DHT22;7379;51.506;11.876;2022-09-17T20:13:18;14.10;94.80
14585;DHT22;7379;51.506;11.876;2022-09-17T20:15:45;14.10;94.90
14585;DHT22;7379;51.506;11.876;2022-09-17T20:18:14;14.10;95.00
14585;DHT22;7379;51.506;11.876;2022-09-17T20:20:40;14.10;94.90
14585;DHT22;7379;51.506;11.876;2022-09-17T20:23:07;14.10;95.00
14585;DHT22;7379;51.506;11.876;2022-09-17T20:25:34;14.10;95.20
14585;DHT22;7379;51.506;11.876;2022-09-17T20:28:01;14.00;95.20
14585;DHT22;7379;51.506;11.876;2022-09-17T20:30:28;14.00;95.30
14585;DHT22;7379;51.506;11.876;2022-09-17T20:32:55;14.00;95.40
14585;DHT22;7379;51.506;11.876;2022-09-17T20:35:23;14.00;95.40
14585;DHT22;7379;51.506;11.876;2022-09-17T20:37:50;14.00;95.40
14585;DHT22;7379;51.506;11.876;2022-09-17T20:40:17;13.90;95.30
14585;DHT22;7379;51.506;11.876;2022-09-17T20:42:43;13.90;95.30
14585;DHT22;7379;51.506;11.876;2022-09-17T20:45:10;13.90;95.30
14585;DHT22;7379;51.506;11.876;2022-09-17T20:47:37;13.90;95.40
14585;DHT22;7379;51.506;11.876;2022-09-17T20:50:05;13.90;95.40
14585;DHT22;7379;51.506;11.876;2022-09-17T20:52:33;13.90;95.50
14585;DHT22;7379;51.506;11.876;2022-09-17T20:55:00;13.90;95.50
14585;DHT22;7379;51.506;11.876;2022-09-17T20:57:26;13.80;95.50
14585;DHT22;7379;51.506;11.876;2022-09-17T20:59:55;13.80;95.60
14585;DHT22;7379;51.506;11.876;2022-09-17T21:02:25;13.80;95.70
14585;DHT22;7379;51.506;11.876;2022-09-17T21:04:52;13.80;95.60
14585;DHT22;7379;51.506;11.876;2022-09-17T21:07:19;13.80;95.70
14585;DHT22;7379;51.506;11.876;2022-09-17T21:09:47;13.70;95.70
14585;DHT22;7379;51.506;11.876;2022-09-17T21:12:14;13.70;95.80
14585;DHT22;7379;51.506;11.876;2022-09-17T21:14:41;13.70;95.90
14585;DHT22;7379;51.506;11.876;2022-09-17T21:17:08;13.70;95.90
14585;DHT22;7379;51.506;11.876;2022-09-17T21:19:34;13.70;95.90
14585;DHT22;7379;51.506;11.876;2022-09-17T21:22:01;13.60;95.90
14585;DHT22;7379;51.506;11.876;2022-09-17T21:24:28;13.70;96.00
14585;DHT22;7379;51.506;11.876;2022-09-17T21:26:56;13.60;96.00
14585;DHT22;7379;51.506;11.876;2022-09-17T21:29:23;13.60;96.00
14585;DHT22;7379;51.506;11.876;2022-09-17T21:31:50;13.60;96.10
14585;DHT22;7379;51.506;11.876;2022-09-17T21:34:17;13.60;96.10
14585;DHT22;7379;51.506;11.876;2022-09-17T21:36:44;13.50;96.10
14585;DHT22;7379;51.506;11.876;2022-09-17T21:39:14;13.60;96.10
14585;DHT22;7379;51.506;11.876;2022-09-17T21:41:41;13.50;96.20
14585;DHT22;7379;51.506;11.876;2022-09-17T21:44:09;13.50;96.20
14585;DHT22;7379;51.506;11.876;2022-09-17T21:46:37;13.50;96.30
14585;DHT22;7379;51.506;11.876;2022-09-17T21:49:04;13.50;96.20
14585;DHT22;7379;51.506;11.876;2022-09-17T21:51:33;13.50;96.30
14585;DHT22;7379;51.506;11.876;2022-09-17T21:54:03;13.50;96.30
14585;DHT22;7379;51.506;11.876;2022-09-17T21:56:30;13.50;96.40
14585;DHT22;7379;51.506;11.876;2022-09-17T21:58:59;13.50;96.40
14585;DHT22;7379;51.506;11.876;2022-09-17T22:01:29;13.50;96.40
14585;DHT22;7379;51.506;11.876;2022-09-17T22:03:57;13.50;96.50
14585;DHT22;7379;51.506;11.876;2022-09-17T22:06:26;13.40;96.50
14585;DHT22;7379;51.506;11.876;2022-09-17T22:08:54;13.50;96.60
14585;DHT22;7379;51.506;11.876;2022-09-17T22:11:23;13.50;96.70
14585;DHT22;7379;51.506;11.876;2022-09-17T22:13:52;13.40;96.70
14585;DHT22;7379;51.506;11.876;2022-09-17T22:16:20;13.40;96.70
14585;DHT22;7379;51.506;11.876;2022-09-17T22:18:50;13.40;96.80
14585;DHT22;7379;51.506;11.876;2022-09-17T22:21:18;13.40;96.80
14585;DHT22;7379;51.506;11.876;2022-09-17T22:23:46;13.40;96.80
14585;DHT22;7379;51.506;11.876;2022-09-17T22:26:14;13.40;96.90
14585;DHT22;7379;51.506;11.876;2022-09-17T22:28:40;13.40;96.90
14585;DHT22;7379;51.506;11.876;2022-09-17T22:31:08;13.30;97.00
14585;DHT22;7379;51.506;11.876;2022-09-17T22:33:37;13.30;97.00
14585;DHT22;7379;51.506;11.876;2022-09-17T22:36:07;13.30;97.10
14585;DHT22;7379;51.506;11.876;2022-09-17T22:38:35;13.30;97.10
14585;DHT22;7379;51.506;11.876;2022-09-17T22:41:04;13.30;97.10
14585;DHT22;7379;51.506;11.876;2022-09-17T22:43:31;13.30;97.20
14585;DHT22;7379;51.506;11.876;2022-09-17T22:45:58;13.30;97.20
14585;DHT22;7379;51.506;11.876;2022-09-17T22:48:25;13.30;97.30
14585;DHT22;7379;51.506;11.876;2022-09-17T22:50:52;13.30;97.30
14585;DHT22;7379;51.506;11.876;2022-09-17T22:53:20;13.30;97.30
14585;DHT22;7379;51.506;11.876;2022-09-17T22:55:53;13.30;97.30
14585;DHT22;7379;51.506;11.876;2022-09-17T22:58:21;13.30;97.30
14585;DHT22;7379;51.506;11.876;2022-09-17T23:00:50;13.20;97.30
14585;DHT22;7379;51.506;11.876;2022-09-17T23:03:17;13.20;97.30
14585;DHT22;7379;51.506;11.876;2022-09-17T23:05:43;13.20;97.30
14585;DHT22;7379;51.506;11.876;2022-09-17T23:08:10;13.20;97.40
14585;DHT22;7379;51.506;11.876;2022-09-17T23:10:39;13.20;97.30
14585;DHT22;7379;51.506;11.876;2022-09-17T23:13:07;13.20;97.40
14585;DHT22;7379;51.506;11.876;2022-09-17T23:15:34;13.20;97.50
14585;DHT22;7379;51.506;11.876;2022-09-17T23:18:01;13.20;97.50
14585;DHT22;7379;51.506;11.876;2022-09-17T23:20:29;13.10;97.50
14585;DHT22;7379;51.506;11.876;2022-09-17T23:22:56;13.10;97.50
14585;DHT22;7379;51.506;11.876;2022-09-17T23:25:22;13.10;97.50
14585;DHT22;7379;51.506;11.876;2022-09-17T23:27:51;13.10;97.60
14585;DHT22;7379;51.506;11.876;2022-09-17T23:30:17;13.10;97.70
14585;DHT22;7379;51.506;11.876;2022-09-17T23:32:44;13.10;97.60
14585;DHT22;7379;51.506;11.876;2022-09-17T23:35:11;13.10;97.60
14585;DHT22;7379;51.506;11.876;2022-09-17T23:37:37;13.10;97.60
14585;DHT22;7379;51.506;11.876;2022-09-17T23:40:05;13.10;97.50
14585;DHT22;7379;51.506;11.876;2022-09-17T23:42:34;13.10;97.60
14585;DHT22;7379;51.506;11.876;2022-09-17T23:45:03;13.10;97.70
14585;DHT22;7379;51.506;11.876;2022-09-17T23:47:30;13.10;97.60
14585;DHT22;7379;51.506;11.876;2022-09-17T23:49:57;13.10;97.70
14585;DHT22;7379;51.506;11.876;2022-09-17T23:52:24;13.10;97.70
14585;DHT22;7379;51.506;11.876;2022-09-17T23:54:51;13.00;97.60
14585;DHT22;7379;51.506;11.876;2022-09-17T23:57:17;13.10;97.60
14585;DHT22;7379;51.506;11.876;2022-09-17T23:59:47;13.00;97.60
